createdAt,value
2019-02-22T00:01:22.090Z,6.90
2019-02-22T00:03:53.264Z,7.10
2019-02-22T00:06:26.514Z,8.30
2019-02-22T00:08:58.213Z,6.37
2019-02-22T00:11:29.492Z,7.40
2019-02-22T00:14:00.730Z,8.20
2019-02-22T00:16:32.486Z,8.50
2019-02-22T00:19:04.050Z,8.10
2019-02-22T00:21:35.023Z,6.57
2019-02-22T00:24:06.382Z,7.10
2019-02-22T00:26:37.862Z,8.27
2019-02-22T00:29:08.896Z,6.53
2019-02-22T00:31:39.948Z,6.77
2019-02-22T00:34:11.251Z,6.17
2019-02-22T00:36:42.378Z,5.73
2019-02-22T00:39:13.413Z,6.57
2019-02-22T00:41:44.410Z,6.53
2019-02-22T00:44:15.421Z,5.93
2019-02-22T00:46:46.475Z,6.30
2019-02-22T00:49:17.467Z,7.30
2019-02-22T00:51:48.463Z,6.40
2019-02-22T00:54:20.460Z,6.10
2019-02-22T00:56:51.459Z,7.58
2019-02-22T00:59:23.218Z,5.30
2019-02-22T01:01:54.554Z,9.18
2019-02-22T01:04:26.039Z,8.10
2019-02-22T01:06:57.057Z,7.63
2019-02-22T01:09:28.066Z,7.50
2019-02-22T01:11:59.684Z,6.97
2019-02-22T01:14:30.693Z,14.87
2019-02-22T01:17:01.841Z,6.90
2019-02-22T01:19:33.153Z,5.63
2019-02-22T01:22:04.487Z,7.62
2019-02-22T01:24:35.784Z,10.37
2019-02-22T01:27:06.836Z,6.55
2019-02-22T01:29:38.063Z,6.92
2019-02-22T01:32:10.110Z,7.12
2019-02-22T01:34:42.411Z,7.70
2019-02-22T01:37:13.939Z,6.73
2019-02-22T01:39:45.524Z,6.83
2019-02-22T01:42:16.845Z,10.43
2019-02-22T01:44:47.899Z,5.67
2019-02-22T01:47:19.549Z,7.27
2019-02-22T01:49:51.210Z,8.23
2019-02-22T01:52:23.380Z,8.62
2019-02-22T01:54:54.431Z,5.90
2019-02-22T01:57:25.419Z,7.50
2019-02-22T01:59:56.701Z,5.87
2019-02-22T02:02:27.685Z,6.60
2019-02-22T02:04:58.976Z,4.47
2019-02-22T02:07:30.046Z,8.33
2019-02-22T02:13:59.998Z,5.63
2019-02-22T02:16:31.310Z,5.55
2019-02-22T02:19:02.556Z,5.05
2019-02-22T02:21:33.620Z,5.40
2019-02-22T02:24:05.246Z,7.20
2019-02-22T02:26:36.702Z,6.53
2019-02-22T02:29:07.769Z,7.30
2019-02-22T02:31:39.105Z,7.20
2019-02-22T02:34:10.118Z,9.60
2019-02-22T02:36:41.873Z,5.42
2019-02-22T02:39:13.443Z,4.60
2019-02-22T02:41:44.795Z,8.67
2019-02-22T02:44:16.372Z,4.00
2019-02-22T02:46:47.422Z,8.17
2019-02-22T02:49:18.564Z,5.67
2019-02-22T02:51:50.521Z,7.05
2019-02-22T02:54:21.845Z,7.03
2019-02-22T02:56:53.649Z,6.26
2019-02-22T02:59:24.888Z,7.57
2019-02-22T03:01:56.198Z,6.78
2019-02-22T03:04:27.216Z,6.37
2019-02-22T03:07:03.147Z,9.15
2019-02-22T03:09:34.785Z,4.07
2019-02-22T03:12:05.855Z,9.00
2019-02-22T03:14:37.204Z,7.83
2019-02-22T03:17:08.795Z,9.25
2019-02-22T03:19:40.355Z,5.27
2019-02-22T03:22:11.521Z,5.67
2019-02-22T03:24:42.598Z,9.47
2019-02-22T03:27:13.889Z,6.45
2019-02-22T03:29:45.369Z,6.97
2019-02-22T03:32:16.501Z,8.40
2019-02-22T03:34:47.985Z,10.07
2019-02-22T03:37:19.003Z,6.80
2019-02-22T03:39:51.053Z,10.20
2019-02-22T03:42:22.450Z,8.07
2019-02-22T03:44:54.253Z,5.75
2019-02-22T03:47:26.139Z,9.90
2019-02-22T03:49:57.722Z,10.65
2019-02-22T03:52:43.130Z,8.77
2019-02-22T03:55:14.586Z,9.00
2019-02-22T03:57:46.052Z,8.83
2019-02-22T04:00:17.045Z,9.00
2019-02-22T04:02:49.231Z,8.25
2019-02-22T04:05:20.236Z,9.53
2019-02-22T04:07:51.544Z,8.40
2019-02-22T04:10:24.238Z,9.82
2019-02-22T04:12:55.278Z,8.87
2019-02-22T04:15:27.060Z,9.37
2019-02-22T04:17:58.052Z,11.00
2019-02-22T04:20:29.836Z,8.90
2019-02-22T04:23:00.871Z,9.50
2019-02-22T04:25:32.921Z,11.13
2019-02-22T04:28:04.183Z,9.47
2019-02-22T04:30:37.823Z,10.60
2019-02-22T04:33:08.196Z,12.60
2019-02-22T04:35:39.213Z,13.33
2019-02-22T04:38:10.491Z,12.30
2019-02-22T04:40:42.465Z,13.18
2019-02-22T04:43:14.103Z,8.50
2019-02-22T04:45:45.272Z,11.57
2019-02-22T04:48:16.920Z,11.20
2019-02-22T04:50:48.577Z,12.18
2019-02-22T04:53:19.930Z,11.23
2019-02-22T04:55:51.282Z,14.60
2019-02-22T04:58:22.620Z,13.10
2019-02-22T05:00:53.827Z,11.78
2019-02-22T05:03:24.817Z,12.77
2019-02-22T05:05:55.815Z,8.68
2019-02-22T05:08:26.793Z,15.95
2019-02-22T05:10:58.113Z,12.90
2019-02-22T05:13:29.602Z,10.93
2019-02-22T05:16:00.757Z,11.87
2019-02-22T05:18:32.306Z,11.20
2019-02-22T05:21:04.025Z,10.32
2019-02-22T05:23:36.286Z,12.63
2019-02-22T05:26:07.545Z,9.00
2019-02-22T05:28:38.784Z,13.40
2019-02-22T05:31:10.041Z,9.80
2019-02-22T05:33:42.914Z,11.97
2019-02-22T05:36:14.152Z,13.05
2019-02-22T05:38:45.220Z,9.47
2019-02-22T05:41:17.062Z,12.00
2019-02-22T05:43:48.392Z,11.53
2019-02-22T05:46:19.694Z,12.63
2019-02-22T05:48:50.714Z,9.67
2019-02-22T05:51:22.126Z,10.67
2019-02-22T05:53:54.182Z,13.88
2019-02-22T05:56:25.682Z,11.90
2019-02-22T05:58:57.122Z,11.47
2019-02-22T06:01:28.378Z,8.65
2019-02-22T06:03:59.363Z,13.13
2019-02-22T06:06:30.772Z,13.70
2019-02-22T06:09:02.321Z,12.50
2019-02-22T06:11:35.123Z,9.70
2019-02-22T06:14:06.226Z,11.03
2019-02-22T06:16:44.999Z,11.53
2019-02-22T06:19:16.915Z,12.47
2019-02-22T06:21:48.091Z,12.28
2019-02-22T06:24:19.738Z,12.13
2019-02-22T06:26:50.778Z,13.73
2019-02-22T06:29:22.107Z,11.43
2019-02-22T06:31:54.371Z,12.98
2019-02-22T06:34:25.611Z,10.93
2019-02-22T06:37:01.929Z,15.53
2019-02-22T06:39:30.318Z,12.10
2019-02-22T06:42:01.315Z,12.67
2019-02-22T06:44:33.367Z,14.97
2019-02-22T06:47:12.896Z,15.03
2019-02-22T06:49:44.593Z,16.47
2019-02-22T06:52:16.435Z,12.53
2019-02-22T06:54:48.077Z,10.60
2019-02-22T06:57:19.397Z,13.57
2019-02-22T06:59:50.716Z,12.50
2019-02-22T07:02:22.236Z,13.40
2019-02-22T07:04:54.743Z,17.48
2019-02-22T07:07:25.978Z,14.20
2019-02-22T07:09:56.962Z,15.40
2019-02-22T07:12:35.148Z,15.33
2019-02-22T07:15:06.993Z,14.13
2019-02-22T07:17:38.014Z,12.83
2019-02-22T07:20:10.855Z,12.43
2019-02-22T07:22:44.386Z,15.40
2019-02-22T07:25:15.722Z,16.43
2019-02-22T07:27:47.131Z,11.50
2019-02-22T07:30:18.122Z,12.43
2019-02-22T07:32:49.830Z,10.82
2019-02-22T07:35:21.079Z,12.43
2019-02-22T07:37:52.331Z,14.78
2019-02-22T07:40:24.195Z,12.28
2019-02-22T07:42:55.200Z,11.55
2019-02-22T07:45:27.235Z,13.93
2019-02-22T07:47:58.247Z,11.90
2019-02-22T07:50:29.833Z,11.52
2019-02-22T07:53:00.831Z,11.77
2019-02-22T07:55:31.810Z,11.53
2019-02-22T07:58:02.888Z,12.78
2019-02-22T08:00:34.247Z,13.27
2019-02-22T08:03:05.240Z,13.40
2019-02-22T08:05:36.497Z,13.93
2019-02-22T08:08:07.886Z,12.03
2019-02-22T08:10:39.492Z,13.77
2019-02-22T08:13:19.189Z,14.70
2019-02-22T08:15:45.196Z,17.67
2019-02-22T08:18:16.442Z,14.38
2019-02-22T08:20:48.997Z,10.08
2019-02-22T08:23:21.149Z,17.83
2019-02-22T08:25:52.522Z,14.03
2019-02-22T08:28:24.676Z,12.68
2019-02-22T08:30:56.325Z,15.25
2019-02-22T08:33:27.586Z,11.60
2019-02-22T08:35:59.281Z,11.93
2019-02-22T08:38:30.583Z,13.43
2019-02-22T08:41:01.572Z,10.33
2019-02-22T08:43:34.213Z,13.57
2019-02-22T08:46:05.202Z,11.50
2019-02-22T08:48:36.494Z,14.53
2019-02-22T08:51:07.918Z,13.73
2019-02-22T08:53:39.722Z,11.13
2019-02-22T08:56:11.353Z,11.47
2019-02-22T08:58:43.910Z,12.27
2019-02-22T09:01:15.273Z,12.33
2019-02-22T09:03:50.533Z,8.53
2019-02-22T09:06:19.753Z,15.40
2019-02-22T09:08:51.042Z,11.55
2019-02-22T09:11:22.024Z,9.43
2019-02-22T09:13:54.272Z,10.63
2019-02-22T09:16:25.826Z,13.97
2019-02-22T09:18:57.394Z,12.55
2019-02-22T09:21:29.558Z,10.46
2019-02-22T09:24:01.196Z,8.63
2019-02-22T09:26:32.781Z,10.57
2019-02-22T09:29:04.201Z,9.47
2019-02-22T09:31:35.697Z,10.97
2019-02-22T09:34:06.949Z,14.50
2019-02-22T09:36:38.448Z,10.20
2019-02-22T09:39:10.034Z,12.53
2019-02-22T09:41:41.358Z,12.20
2019-02-22T09:44:12.700Z,13.85
2019-02-22T09:46:43.925Z,12.23
2019-02-22T09:49:15.311Z,13.70
2019-02-22T09:51:47.128Z,11.20
2019-02-22T09:54:18.920Z,9.50
2019-02-22T09:56:51.031Z,11.55
2019-02-22T09:59:23.349Z,11.77
2019-02-22T10:01:54.773Z,12.13
2019-02-22T10:04:26.481Z,9.67
2019-02-22T10:06:57.540Z,11.68
2019-02-22T10:09:29.478Z,8.90
2019-02-22T10:12:00.791Z,10.50
2019-02-22T10:14:32.152Z,13.18
2019-02-22T10:17:03.923Z,11.63
2019-02-22T10:19:35.491Z,10.57
2019-02-22T10:22:06.821Z,7.67
2019-02-22T10:24:38.489Z,9.15
2019-02-22T10:27:12.010Z,10.68
2019-02-22T10:29:43.488Z,11.03
2019-02-22T10:32:15.975Z,10.60
2019-02-22T10:34:47.797Z,9.07
2019-02-22T10:37:19.672Z,11.43
2019-02-22T10:39:50.939Z,12.82
2019-02-22T10:42:22.628Z,10.43
2019-02-22T10:44:55.299Z,9.33
2019-02-22T10:47:27.047Z,7.33
2019-02-22T10:49:59.449Z,9.98
2019-02-22T10:52:31.188Z,7.37
2019-02-22T10:55:02.914Z,9.63
2019-02-22T10:57:34.515Z,11.43
2019-02-22T11:00:08.602Z,9.65
2019-02-22T11:02:40.249Z,8.50
2019-02-22T11:05:11.626Z,9.63
2019-02-22T11:07:44.096Z,9.58
2019-02-22T11:10:15.980Z,10.13
2019-02-22T11:12:47.274Z,11.43
2019-02-22T11:15:18.712Z,6.63
2019-02-22T11:17:50.104Z,5.35
2019-02-22T11:20:21.674Z,7.50
2019-02-22T11:22:53.446Z,7.05
2019-02-22T11:25:25.054Z,5.95
2019-02-22T11:27:56.040Z,5.28
2019-02-22T11:30:27.449Z,5.20
2019-02-22T11:32:59.297Z,6.73
2019-02-22T11:35:30.561Z,5.03
2019-02-22T11:38:01.814Z,5.07
2019-02-22T11:40:33.794Z,5.70
2019-02-22T11:43:05.038Z,4.20
2019-02-22T11:45:37.091Z,5.63
2019-02-22T11:48:09.520Z,4.10
2019-02-22T11:50:41.291Z,3.83
2019-02-22T11:53:12.571Z,5.20
2019-02-22T11:55:43.947Z,4.50
2019-02-22T11:58:15.677Z,3.73
2019-02-22T12:00:47.126Z,4.17
2019-02-22T12:03:24.516Z,3.97
2019-02-22T12:05:52.005Z,4.67
2019-02-22T12:08:23.635Z,4.13
2019-02-22T12:10:55.496Z,4.60
2019-02-22T12:13:27.059Z,4.43
2019-02-22T12:15:58.705Z,7.25
2019-02-22T12:18:29.950Z,5.48
2019-02-22T12:21:01.802Z,6.10
2019-02-22T12:23:33.416Z,5.37
2019-02-22T12:26:04.785Z,8.77
2019-02-22T12:28:36.168Z,5.00
2019-02-22T12:31:07.726Z,4.23
2019-02-22T12:33:39.217Z,4.90
2019-02-22T12:36:10.832Z,4.43
2019-02-22T12:38:42.205Z,3.27
2019-02-22T12:41:13.696Z,3.97
2019-02-22T12:43:45.320Z,4.03
2019-02-22T12:46:17.033Z,5.20
2019-02-22T12:48:48.517Z,3.15
2019-02-22T12:51:19.532Z,4.67
2019-02-22T12:53:51.116Z,3.00
2019-02-22T12:56:48.572Z,3.10
2019-02-22T12:58:55.927Z,3.58
2019-02-22T13:01:27.671Z,3.67
2019-02-22T13:03:59.246Z,3.93
2019-02-22T13:06:30.587Z,2.77
2019-02-22T13:09:02.172Z,3.92
2019-02-22T13:11:35.543Z,6.00
2019-02-22T13:14:06.711Z,3.63
2019-02-22T13:16:38.070Z,3.47
2019-02-22T13:19:10.052Z,3.27
2019-02-22T13:21:42.580Z,5.33
2019-02-22T13:24:14.205Z,1.70
2019-02-22T13:26:46.082Z,4.33
2019-02-22T13:29:17.704Z,2.63
2019-02-22T13:31:49.641Z,2.80
2019-02-22T13:34:21.052Z,3.27
2019-02-22T13:36:52.530Z,3.05
2019-02-22T13:39:23.762Z,1.40
2019-02-22T13:41:55.121Z,2.33
2019-02-22T13:44:26.172Z,2.33
2019-02-22T13:46:58.154Z,1.57
2019-02-22T13:49:30.172Z,2.75
2019-02-22T13:52:01.821Z,5.33
2019-02-22T13:54:33.084Z,2.93
2019-02-22T13:57:04.370Z,4.37
2019-02-22T13:59:35.709Z,3.10
2019-02-22T14:02:07.424Z,4.07
2019-02-22T14:04:39.048Z,4.13
2019-02-22T14:07:10.282Z,4.93
2019-02-22T14:09:41.284Z,1.77
2019-02-22T14:12:12.761Z,4.23
2019-02-22T14:14:44.006Z,3.03
2019-02-22T14:17:14.980Z,2.20
2019-02-22T14:19:46.562Z,6.10
2019-02-22T14:22:18.507Z,2.33
2019-02-22T14:24:49.512Z,3.20
2019-02-22T14:27:20.799Z,5.27
2019-02-22T14:29:52.680Z,1.77
2019-02-22T14:32:25.164Z,4.10
2019-02-22T14:34:56.184Z,3.33
2019-02-22T14:37:27.272Z,3.07
2019-02-22T14:40:03.444Z,3.05
2019-02-22T14:42:31.337Z,4.17
2019-02-22T14:45:03.119Z,3.33
2019-02-22T14:47:34.356Z,4.43
2019-02-22T14:50:07.452Z,4.07
2019-02-22T14:52:38.828Z,4.83
2019-02-22T14:55:10.132Z,4.20
2019-02-22T14:57:41.202Z,4.72
2019-02-22T15:00:15.652Z,4.07
2019-02-22T15:02:47.260Z,4.47
2019-02-22T15:05:18.919Z,2.73
2019-02-22T15:07:50.469Z,4.17
2019-02-22T15:10:21.641Z,3.00
2019-02-22T15:12:53.058Z,3.42
2019-02-22T15:15:35.063Z,2.47
2019-02-22T15:18:06.152Z,6.20
2019-02-22T15:20:37.449Z,2.87
2019-02-22T15:23:08.798Z,2.73
2019-02-22T15:25:40.766Z,4.00
2019-02-22T15:28:12.115Z,3.47
2019-02-22T15:30:45.238Z,3.17
2019-02-22T15:33:17.089Z,2.33
2019-02-22T15:35:48.150Z,3.27
2019-02-22T15:38:19.147Z,3.90
2019-02-22T15:40:50.162Z,5.28
2019-02-22T15:43:21.845Z,4.17
2019-02-22T15:45:53.463Z,4.42
2019-02-22T15:48:25.870Z,3.77
2019-02-22T15:50:56.877Z,4.30
2019-02-22T15:53:28.152Z,4.53
2019-02-22T15:55:59.172Z,2.70
2019-02-22T15:58:30.755Z,2.10
2019-02-22T16:01:01.986Z,2.60
2019-02-22T16:03:51.672Z,2.67
2019-02-22T16:06:23.358Z,3.17
2019-02-22T16:08:55.586Z,4.28
2019-02-22T16:11:27.298Z,3.50
2019-02-22T16:13:58.348Z,2.65
2019-02-22T16:16:29.746Z,4.40
2019-02-22T16:19:00.967Z,5.47
2019-02-22T16:21:32.508Z,4.00
2019-02-22T16:24:03.671Z,3.50
2019-02-22T16:26:35.037Z,5.77
2019-02-22T16:29:06.796Z,4.20
2019-02-22T16:31:38.315Z,3.37
2019-02-22T16:34:09.816Z,1.77
2019-02-22T16:36:41.082Z,3.80
2019-02-22T16:39:12.908Z,3.83
2019-02-22T16:41:45.591Z,3.60
2019-02-22T16:44:17.140Z,2.70
2019-02-22T16:46:48.154Z,1.83
2019-02-22T16:49:19.645Z,4.73
2019-02-22T16:51:51.641Z,2.47
2019-02-22T16:54:22.652Z,3.43
2019-02-22T16:56:54.025Z,4.33
2019-02-22T16:59:26.589Z,5.35
2019-02-22T17:01:58.205Z,2.77
2019-02-22T17:04:29.496Z,4.00
2019-02-22T17:07:01.040Z,2.92
2019-02-22T17:09:33.365Z,3.73
2019-02-22T17:12:06.696Z,2.70
2019-02-22T17:14:37.963Z,3.13
2019-02-22T17:17:09.417Z,2.53
2019-02-22T17:19:41.248Z,2.53
2019-02-22T17:22:12.338Z,1.60
2019-02-22T17:24:44.559Z,2.85
2019-02-22T17:27:15.899Z,2.25
2019-02-22T17:29:48.615Z,3.30
2019-02-22T17:32:20.518Z,2.17
2019-02-22T17:34:52.510Z,2.50
2019-02-22T17:37:23.863Z,3.00
2019-02-22T17:39:55.751Z,3.12
2019-02-22T17:42:27.824Z,3.23
2019-02-22T17:44:59.250Z,2.85
2019-02-22T17:47:30.917Z,3.35
2019-02-22T17:50:02.551Z,2.83
2019-02-22T17:52:33.718Z,1.50
2019-02-22T17:55:04.902Z,4.17
2019-02-22T17:57:36.333Z,2.15
2019-02-22T18:00:11.768Z,2.25
2019-02-22T18:02:43.241Z,2.93
2019-02-22T18:05:14.471Z,2.77
2019-02-22T18:07:45.815Z,3.70
2019-02-22T18:10:17.531Z,3.63
2019-02-22T18:12:48.899Z,2.60
2019-02-22T18:15:20.078Z,3.47
2019-02-22T18:17:52.682Z,3.85
2019-02-22T18:20:23.784Z,3.10
2019-02-22T18:22:56.239Z,4.08
2019-02-22T18:25:27.755Z,4.23
2019-02-22T18:27:59.093Z,3.87
2019-02-22T18:30:30.570Z,3.42
2019-02-22T18:33:01.679Z,2.43
2019-02-22T18:35:33.172Z,2.67
2019-02-22T18:38:04.465Z,2.70
2019-02-22T18:40:35.780Z,4.43
2019-02-22T18:43:07.419Z,3.98
2019-02-22T18:45:38.772Z,3.22
2019-02-22T18:48:10.042Z,2.72
2019-02-22T18:50:41.030Z,2.73
2019-02-22T18:53:12.271Z,2.37
2019-02-22T18:55:49.800Z,1.93
2019-02-22T18:58:16.801Z,2.67
2019-02-22T19:00:48.069Z,2.70
2019-02-22T19:03:19.180Z,3.73
2019-02-22T19:05:50.782Z,3.30
2019-02-22T19:08:31.779Z,10.17
2019-02-22T19:10:56.168Z,6.17
2019-02-22T19:13:27.740Z,6.67
2019-02-22T19:15:58.992Z,3.63
2019-02-22T19:18:30.570Z,5.78
2019-02-22T19:21:01.848Z,2.80
2019-02-22T19:23:33.252Z,4.60
2019-02-22T19:26:04.790Z,4.27
2019-02-22T19:28:36.245Z,4.03
2019-02-22T19:31:07.749Z,4.00
2019-02-22T19:33:39.126Z,5.47
2019-02-22T19:36:10.478Z,4.60
2019-02-22T19:38:42.486Z,2.77
2019-02-22T19:41:13.802Z,2.57
2019-02-22T19:43:45.214Z,2.47
2019-02-22T19:46:16.517Z,3.73
2019-02-22T19:48:48.111Z,5.67
2019-02-22T19:51:19.119Z,3.93
2019-02-22T19:53:51.228Z,4.75
2019-02-22T19:56:22.318Z,2.77
2019-02-22T19:58:53.687Z,3.37
2019-02-22T20:01:26.440Z,4.73
2019-02-22T20:03:57.906Z,5.25
2019-02-22T20:06:29.694Z,5.07
2019-02-22T20:09:01.349Z,4.67
2019-02-22T20:11:34.107Z,3.83
2019-02-22T20:14:05.153Z,4.00
2019-02-22T20:16:36.438Z,3.43
2019-02-22T20:19:07.689Z,3.03
2019-02-22T20:21:38.709Z,3.63
2019-02-22T20:24:10.096Z,3.40
2019-02-22T20:26:41.665Z,5.87
2019-02-22T20:29:13.084Z,4.47
2019-02-22T20:31:45.340Z,5.90
2019-02-22T20:34:16.392Z,3.77
2019-02-22T20:36:47.491Z,3.27
2019-02-22T20:39:18.793Z,2.07
2019-02-22T20:41:50.115Z,4.23
2019-02-22T20:44:21.695Z,2.77
2019-02-22T20:46:53.006Z,4.72
2019-02-22T20:49:23.990Z,2.50
2019-02-22T20:51:56.836Z,3.73
2019-02-22T20:54:27.961Z,2.47
2019-02-22T20:56:58.976Z,6.57
2019-02-22T20:59:30.193Z,5.20
2019-02-22T21:02:01.527Z,3.96
2019-02-22T21:04:33.095Z,2.87
2019-02-22T21:07:04.659Z,4.35
2019-02-22T21:09:36.002Z,5.33
2019-02-22T21:12:07.455Z,4.00
2019-02-22T21:14:38.763Z,2.37
2019-02-22T21:17:10.325Z,3.37
2019-02-22T21:19:41.671Z,5.77
2019-02-22T21:22:12.930Z,2.27
2019-02-22T21:24:44.900Z,2.05
2019-02-22T21:27:16.533Z,2.77
2019-02-22T21:29:47.774Z,3.27
2019-02-22T21:32:19.334Z,3.40
2019-02-22T21:34:50.647Z,1.90
2019-02-22T21:37:22.148Z,4.70
2019-02-22T21:39:53.398Z,3.53
2019-02-22T21:42:24.733Z,3.70
2019-02-22T21:44:56.691Z,2.72
2019-02-22T21:47:28.000Z,3.70
2019-02-22T21:49:58.990Z,3.62
2019-02-22T21:52:30.425Z,2.27
2019-02-22T21:55:02.495Z,2.63
2019-02-22T21:57:34.433Z,2.70
2019-02-22T22:00:07.455Z,4.50
2019-02-22T22:02:38.821Z,4.83
2019-02-22T22:05:09.861Z,4.70
2019-02-22T22:07:41.175Z,1.83
2019-02-22T22:10:12.234Z,2.98
2019-02-22T22:12:46.010Z,3.08
2019-02-22T22:15:16.685Z,5.03
2019-02-22T22:17:47.915Z,3.53
2019-02-22T22:20:19.258Z,3.93
2019-02-22T22:22:50.863Z,2.30
2019-02-22T22:25:21.832Z,4.37
2019-02-22T22:27:53.110Z,3.65
2019-02-22T22:30:24.078Z,2.10
2019-02-22T22:32:56.861Z,3.00
2019-02-22T22:35:28.137Z,2.53
2019-02-22T22:37:59.215Z,3.62
2019-02-22T22:40:30.184Z,5.03
2019-02-22T22:43:01.419Z,2.47
2019-02-22T22:45:32.514Z,2.90
2019-02-22T22:48:03.838Z,2.62
2019-02-22T22:50:35.055Z,2.97
2019-02-22T22:53:06.103Z,3.80
2019-02-22T22:55:37.826Z,4.50
2019-02-22T22:58:09.496Z,4.10
2019-02-22T23:01:05.858Z,3.67
2019-02-22T23:03:37.960Z,4.60
2019-02-22T23:06:10.882Z,2.70
2019-02-22T23:08:42.473Z,3.13
2019-02-22T23:11:13.558Z,3.70
2019-02-22T23:13:45.645Z,5.30
2019-02-22T23:16:16.698Z,5.00
2019-02-22T23:18:47.849Z,2.07
2019-02-22T23:21:19.948Z,4.53
2019-02-22T23:23:50.937Z,4.53
2019-02-22T23:26:21.908Z,3.63
2019-02-22T23:28:53.636Z,3.20
2019-02-22T23:31:25.007Z,1.73
2019-02-22T23:33:57.299Z,3.52
2019-02-22T23:36:28.367Z,3.33
2019-02-22T23:38:59.351Z,3.73
2019-02-22T23:41:30.986Z,2.60
2019-02-22T23:44:02.644Z,2.97
2019-02-22T23:46:33.941Z,2.03
2019-02-22T23:49:13.107Z,4.60
2019-02-22T23:51:39.277Z,1.87
2019-02-22T23:54:10.274Z,3.40
2019-02-22T23:56:41.737Z,2.92
2019-02-22T23:59:12.984Z,2.87
